Terminal Aerodrome Forecast
Issued by NWS Sioux Falls, SD

Home | Current Version | Previous Version | Text Only | Print | Product List | Glossary On
Versions: 1 2 3 4 5 6 7 8 9 10 11 12 13 14 15 16 17 18 19 20 21 22 23 24 25 26
466
FTUS43 KFSD 021720
TAFFSD
TAF
KFSD 021720Z 0218/0318 35004KT P6SM SCT015 OVC035
     FM030100 29003KT P6SM OVC030
     FM030400 VRB03KT P6SM OVC020
     FM030900 18003KT P6SM OVC015
     FM031100 18004KT P6SM OVC008
     FM031500 17008KT P6SM SCT012 BKN150=

USA.gov is the U.S. government's official web portal to all federal, state and local government web resources and services.